ADDS METAR Data INFO
IDs: Format: Raw Decoded Include TAF

Data at: 2041 UTC 20 Jul 2018

KSCH 201655Z 11005KT 15SM FEW035 29/12 A3014
KSCH 201555Z 11004KT 15SM SKC 28/14 A3016
KSCH 201455Z 00000KT 15SM SKC 25/14 A3018
KSCH 201345Z 00000KT 15SM SKC 23/14 A3018
KSCH 201255Z 00000KT 15SM SKC 21/14 A3018
KSCH 201156Z 02004KT 15SM CLR 18/13 A3018 RMK FIRST
KSCH 200145Z 00000KT 10SM CLR 22/12 A3011 RMK LAST
KSCH 191945Z 24006KT 15SM CLR 28/07 A3008
KSCH 191855Z 27006KT 15SM CLR 27/08 A3009
KSCH 191659Z 00000KT 15SM CLR 25/08 A3011
KSCH 191545Z 00000KT 15SM CLR 26/08 A3013
KSCH 191445Z 02003KT 15SM CLR 23/08 A3013
KSCH 191345Z 26003KT 15SM CLR 22/09 A3013
KSCH 191246Z 31005KT 15SM CLR 19/11 A3014
KSCH 191150Z 29004KT 15SM CLR 17/11 A3012 RMK FIRST